sensor_id;sensor_type;location;lat;lon;timestamp;pressure;altitude;pressure_sealevel;temperature;humidity
64610;BME280;51019;46.090;6.350;2022-12-10T00:00:03;95156.91;;;-0.31;100.00
64610;BME280;51019;46.090;6.350;2022-12-10T00:02:31;95224.13;;;0.01;100.00
64610;BME280;51019;46.090;6.350;2022-12-10T00:04:58;95228.31;;;-0.09;100.00
64610;BME280;51019;46.090;6.350;2022-12-10T00:07:27;95212.84;;;-0.09;100.00
64610;BME280;51019;46.090;6.350;2022-12-10T00:09:55;95220.31;;;-0.17;100.00
64610;BME280;51019;46.090;6.350;2022-12-10T00:12:22;95152.13;;;-0.59;100.00
64610;BME280;51019;46.090;6.350;2022-12-10T00:14:50;95216.69;;;-0.15;100.00
64610;BME280;51019;46.090;6.350;2022-12-10T00:17:17;95212.47;;;-0.16;100.00
64610;BME280;51019;46.090;6.350;2022-12-10T00:19:45;95216.69;;;-0.15;100.00
64610;BME280;51019;46.090;6.350;2022-12-10T00:22:12;95216.00;;;-0.17;100.00
64610;BME280;51019;46.090;6.350;2022-12-10T00:24:41;95179.38;;;-0.33;100.00
64610;BME280;51019;46.090;6.350;2022-12-10T00:27:09;95215.31;;;-0.08;100.00
64610;BME280;51019;46.090;6.350;2022-12-10T00:29:36;95186.34;;;-0.22;100.00
64610;BME280;51019;46.090;6.350;2022-12-10T00:32:04;95208.06;;;-0.14;100.00
64610;BME280;51019;46.090;6.350;2022-12-10T00:34:31;95204.53;;;-0.13;100.00
64610;BME280;51019;46.090;6.350;2022-12-10T00:36:58;95207.69;;;-0.09;100.00
64610;BME280;51019;46.090;6.350;2022-12-10T00:39:27;95202.66;;;-0.11;100.00
64610;BME280;51019;46.090;6.350;2022-12-10T00:41:56;95202.91;;;-0.14;100.00
64610;BME280;51019;46.090;6.350;2022-12-10T00:44:23;95203.00;;;-0.15;100.00
64610;BME280;51019;46.090;6.350;2022-12-10T00:46:51;95197.13;;;-0.17;100.00
64610;BME280;51019;46.090;6.350;2022-12-10T00:49:18;95201.63;;;-0.08;100.00
64610;BME280;51019;46.090;6.350;2022-12-10T00:51:48;95182.25;;;-0.01;100.00
64610;BME280;51019;46.090;6.350;2022-12-10T00:54:16;95202.28;;;0.07;100.00
64610;BME280;51019;46.090;6.350;2022-12-10T00:56:43;95198.47;;;-0.12;100.00
64610;BME280;51019;46.090;6.350;2022-12-10T00:59:12;95197.13;;;-0.17;100.00
64610;BME280;51019;46.090;6.350;2022-12-10T01:01:41;95170.50;;;-0.29;100.00
64610;BME280;51019;46.090;6.350;2022-12-10T01:04:10;95203.78;;;-0.02;100.00
64610;BME280;51019;46.090;6.350;2022-12-10T01:06:44;95205.69;;;-0.17;100.00
64610;BME280;51019;46.090;6.350;2022-12-10T01:09:14;95056.44;;;-1.01;100.00
64610;BME280;51019;46.090;6.350;2022-12-10T01:11:42;95199.19;;;0.02;100.00
64610;BME280;51019;46.090;6.350;2022-12-10T01:14:15;95202.69;;;0.00;100.00
64610;BME280;51019;46.090;6.350;2022-12-10T01:16:43;95179.88;;;-0.28;100.00
64610;BME280;51019;46.090;6.350;2022-12-10T01:19:15;95209.75;;;-0.02;100.00
64610;BME280;51019;46.090;6.350;2022-12-10T01:21:44;95101.53;;;-0.71;100.00
64610;BME280;51019;46.090;6.350;2022-12-10T01:24:12;95213.25;;;-0.03;100.00
64610;BME280;51019;46.090;6.350;2022-12-10T01:26:39;95214.59;;;-0.10;100.00
64610;BME280;51019;46.090;6.350;2022-12-10T01:29:06;95209.63;;;-0.24;100.00
64610;BME280;51019;46.090;6.350;2022-12-10T01:31:37;95229.13;;;-0.09;100.00
64610;BME280;51019;46.090;6.350;2022-12-10T01:34:07;95228.81;;;-0.04;100.00
64610;BME280;51019;46.090;6.350;2022-12-10T01:36:39;95194.00;;;-0.33;100.00
64610;BME280;51019;46.090;6.350;2022-12-10T01:39:11;95231.22;;;-0.14;100.00
64610;BME280;51019;46.090;6.350;2022-12-10T01:41:41;95229.31;;;-0.23;100.00
64610;BME280;51019;46.090;6.350;2022-12-10T01:47:11;95202.72;;;-0.47;100.00
64610;BME280;51019;46.090;6.350;2022-12-10T01:49:39;95132.25;;;-0.94;100.00
64610;BME280;51019;46.090;6.350;2022-12-10T01:52:10;95182.28;;;-0.61;100.00
64610;BME280;51019;46.090;6.350;2022-12-10T01:54:41;95227.38;;;-0.32;100.00
64610;BME280;51019;46.090;6.350;2022-12-10T01:57:11;95228.28;;;-0.33;100.00
64610;BME280;51019;46.090;6.350;2022-12-10T01:59:43;95225.56;;;-0.19;100.00
64610;BME280;51019;46.090;6.350;2022-12-10T02:02:20;95242.50;;;-0.04;100.00
64610;BME280;51019;46.090;6.350;2022-12-10T02:04:59;95240.66;;;-0.02;100.00
64610;BME280;51019;46.090;6.350;2022-12-10T02:07:39;95248.13;;;-0.22;100.00
64610;BME280;51019;46.090;6.350;2022-12-10T02:10:18;95242.59;;;-0.29;100.00
64610;BME280;51019;46.090;6.350;2022-12-10T02:12:50;95239.09;;;-0.28;100.00
64610;BME280;51019;46.090;6.350;2022-12-10T02:15:23;95239.94;;;-0.27;100.00
64610;BME280;51019;46.090;6.350;2022-12-10T02:17:56;95244.03;;;-0.25;100.00
64610;BME280;51019;46.090;6.350;2022-12-10T02:20:29;95255.06;;;-0.23;100.00
64610;BME280;51019;46.090;6.350;2022-12-10T02:23:01;95250.84;;;-0.24;100.00
64610;BME280;51019;46.090;6.350;2022-12-10T02:25:34;95242.97;;;-0.22;100.00
64610;BME280;51019;46.090;6.350;2022-12-10T02:28:10;95241.94;;;-0.20;100.00
64610;BME280;51019;46.090;6.350;2022-12-10T02:30:42;95118.03;;;-0.87;100.00
64610;BME280;51019;46.090;6.350;2022-12-10T02:33:12;95242.66;;;-0.18;100.00
64610;BME280;51019;46.090;6.350;2022-12-10T02:35:41;95240.53;;;-0.24;100.00
64610;BME280;51019;46.090;6.350;2022-12-10T02:38:12;95157.19;;;-0.70;100.00
64610;BME280;51019;46.090;6.350;2022-12-10T02:40:44;95235.22;;;-0.10;100.00
64610;BME280;51019;46.090;6.350;2022-12-10T02:43:13;95230.97;;;-0.11;100.00
64610;BME280;51019;46.090;6.350;2022-12-10T02:45:44;95229.94;;;-0.08;100.00
64610;BME280;51019;46.090;6.350;2022-12-10T02:48:12;95226.03;;;-0.01;100.00
64610;BME280;51019;46.090;6.350;2022-12-10T02:50:40;95163.41;;;-0.49;100.00
64610;BME280;51019;46.090;6.350;2022-12-10T02:53:08;95151.59;;;-0.64;100.00
64610;BME280;51019;46.090;6.350;2022-12-10T02:55:46;95229.59;;;-0.15;100.00
64610;BME280;51019;46.090;6.350;2022-12-10T02:58:24;95216.44;;;-0.23;100.00
64610;BME280;51019;46.090;6.350;2022-12-10T03:01:01;95215.66;;;-0.12;100.00
64610;BME280;51019;46.090;6.350;2022-12-10T03:03:42;95207.34;;;-0.16;100.00
64610;BME280;51019;46.090;6.350;2022-12-10T03:06:17;95211.59;;;-0.04;100.00
64610;BME280;51019;46.090;6.350;2022-12-10T03:08:49;95212.28;;;-0.13;100.00
64610;BME280;51019;46.090;6.350;2022-12-10T03:11:20;95184.97;;;-0.15;100.00
64610;BME280;51019;46.090;6.350;2022-12-10T03:13:54;95137.97;;;-0.30;100.00
64610;BME280;51019;46.090;6.350;2022-12-10T03:16:29;95172.25;;;-0.06;100.00
64610;BME280;51019;46.090;6.350;2022-12-10T03:19:00;95200.16;;;0.12;100.00
64610;BME280;51019;46.090;6.350;2022-12-10T03:21:29;95190.66;;;0.01;100.00
64610;BME280;51019;46.090;6.350;2022-12-10T03:23:58;95201.34;;;-0.16;100.00
64610;BME280;51019;46.090;6.350;2022-12-10T03:26:26;95200.16;;;-0.23;100.00
64610;BME280;51019;46.090;6.350;2022-12-10T03:28:58;95176.13;;;-0.35;100.00
64610;BME280;51019;46.090;6.350;2022-12-10T03:31:30;95206.63;;;-0.18;100.00
64610;BME280;51019;46.090;6.350;2022-12-10T03:33:59;95205.47;;;-0.14;100.00
64610;BME280;51019;46.090;6.350;2022-12-10T03:36:27;95204.50;;;-0.24;100.00
64610;BME280;51019;46.090;6.350;2022-12-10T03:38:56;95203.66;;;-0.24;100.00
64610;BME280;51019;46.090;6.350;2022-12-10T03:41:24;95112.47;;;-0.81;100.00
64610;BME280;51019;46.090;6.350;2022-12-10T03:43:53;95206.88;;;-0.10;100.00
64610;BME280;51019;46.090;6.350;2022-12-10T03:46:20;95202.13;;;-0.03;100.00
64610;BME280;51019;46.090;6.350;2022-12-10T03:48:50;95205.63;;;-0.04;100.00
64610;BME280;51019;46.090;6.350;2022-12-10T03:51:17;95170.31;;;-0.26;100.00
64610;BME280;51019;46.090;6.350;2022-12-10T03:53:45;95203.31;;;-0.20;100.00
64610;BME280;51019;46.090;6.350;2022-12-10T03:56:14;95150.13;;;-0.56;100.00
64610;BME280;51019;46.090;6.350;2022-12-10T03:58:41;95199.94;;;-0.20;100.00
64610;BME280;51019;46.090;6.350;2022-12-10T04:01:09;95203.56;;;-0.23;100.00
64610;BME280;51019;46.090;6.350;2022-12-10T04:03:36;95172.47;;;-0.32;100.00
64610;BME280;51019;46.090;6.350;2022-12-10T04:06:11;95108.63;;;-0.75;100.00
64610;BME280;51019;46.090;6.350;2022-12-10T04:08:38;95208.56;;;-0.21;100.00
64610;BME280;51019;46.090;6.350;2022-12-10T04:11:07;95216.44;;;-0.23;100.00
64610;BME280;51019;46.090;6.350;2022-12-10T04:13:36;95209.97;;;-0.05;100.00
64610;BME280;51019;46.090;6.350;2022-12-10T04:16:23;95230.72;;;0.05;100.00
64610;BME280;51019;46.090;6.350;2022-12-10T04:18:58;95211.00;;;-0.07;100.00
64610;BME280;51019;46.090;6.350;2022-12-10T04:21:30;95220.69;;;-0.11;100.00
64610;BME280;51019;46.090;6.350;2022-12-10T04:24:15;95215.16;;;-0.17;100.00
64610;BME280;51019;46.090;6.350;2022-12-10T04:27:06;95226.50;;;-0.20;100.00
64610;BME280;51019;46.090;6.350;2022-12-10T04:29:35;95228.34;;;-0.22;100.00
64610;BME280;51019;46.090;6.350;2022-12-10T04:32:03;95225.69;;;-0.20;100.00
64610;BME280;51019;46.090;6.350;2022-12-10T04:34:30;95197.53;;;-0.34;100.00
64610;BME280;51019;46.090;6.350;2022-12-10T04:37:01;95222.94;;;-0.30;100.00
64610;BME280;51019;46.090;6.350;2022-12-10T04:39:28;95221.53;;;-0.34;100.00
64610;BME280;51019;46.090;6.350;2022-12-10T04:41:56;95137.06;;;-0.89;100.00
64610;BME280;51019;46.090;6.350;2022-12-10T04:44:24;95090.75;;;-1.13;100.00
64610;BME280;51019;46.090;6.350;2022-12-10T04:46:52;95225.50;;;-0.30;100.00
64610;BME280;51019;46.090;6.350;2022-12-10T04:49:20;95225.41;;;-0.28;100.00
64610;BME280;51019;46.090;6.350;2022-12-10T04:51:47;95233.94;;;-0.28;100.00
64610;BME280;51019;46.090;6.350;2022-12-10T04:54:17;95144.69;;;-0.88;100.00
64610;BME280;51019;46.090;6.350;2022-12-10T04:56:45;95225.03;;;-0.35;100.00
64610;BME280;51019;46.090;6.350;2022-12-10T04:59:12;95233.34;;;-0.31;100.00
64610;BME280;51019;46.090;6.350;2022-12-10T05:01:40;95234.16;;;-0.31;100.00
64610;BME280;51019;46.090;6.350;2022-12-10T05:04:09;95238.47;;;-0.31;100.00
64610;BME280;51019;46.090;6.350;2022-12-10T05:06:37;95235.81;;;-0.30;100.00
64610;BME280;51019;46.090;6.350;2022-12-10T05:09:05;95240.19;;;-0.19;100.00
64610;BME280;51019;46.090;6.350;2022-12-10T05:11:34;95208.31;;;-0.29;100.00
64610;BME280;51019;46.090;6.350;2022-12-10T05:14:02;95232.38;;;-0.18;100.00
64610;BME280;51019;46.090;6.350;2022-12-10T05:16:32;95241.53;;;-0.14;100.00
64610;BME280;51019;46.090;6.350;2022-12-10T05:19:00;95239.25;;;-0.18;100.00
64610;BME280;51019;46.090;6.350;2022-12-10T05:21:29;95158.53;;;-0.78;100.00
64610;BME280;51019;46.090;6.350;2022-12-10T05:24:17;95212.78;;;-0.44;100.00
64610;BME280;51019;46.090;6.350;2022-12-10T05:26:46;95246.50;;;-0.23;100.00
64610;BME280;51019;46.090;6.350;2022-12-10T05:29:16;95257.63;;;-0.23;100.00
64610;BME280;51019;46.090;6.350;2022-12-10T05:31:44;95258.56;;;-0.24;100.00
64610;BME280;51019;46.090;6.350;2022-12-10T05:34:11;95256.00;;;-0.24;100.00
64610;BME280;51019;46.090;6.350;2022-12-10T05:36:39;95258.56;;;-0.24;100.00
64610;BME280;51019;46.090;6.350;2022-12-10T05:39:07;95229.06;;;-0.44;100.00
64610;BME280;51019;46.090;6.350;2022-12-10T05:41:37;95150.66;;;-1.00;100.00
64610;BME280;51019;46.090;6.350;2022-12-10T05:44:08;95243.53;;;-0.30;100.00
64610;BME280;51019;46.090;6.350;2022-12-10T05:46:36;95283.16;;;-0.20;100.00
64610;BME280;51019;46.090;6.350;2022-12-10T05:49:05;95280.81;;;-0.23;100.00
64610;BME280;51019;46.090;6.350;2022-12-10T05:51:34;95279.03;;;-0.22;100.00
64610;BME280;51019;46.090;6.350;2022-12-10T05:54:03;95277.63;;;-0.26;100.00
64610;BME280;51019;46.090;6.350;2022-12-10T05:56:31;95282.69;;;-0.01;100.00
64610;BME280;51019;46.090;6.350;2022-12-10T05:59:00;95292.03;;;-0.24;100.00
64610;BME280;51019;46.090;6.350;2022-12-10T06:01:33;95282.91;;;-0.04;100.00
64610;BME280;51019;46.090;6.350;2022-12-10T06:04:02;95235.38;;;-0.60;100.00
64610;BME280;51019;46.090;6.350;2022-12-10T06:06:31;95286.81;;;-0.35;100.00
64610;BME280;51019;46.090;6.350;2022-12-10T06:08:59;95288.59;;;-0.12;100.00
64610;BME280;51019;46.090;6.350;2022-12-10T06:11:27;95283.16;;;-0.20;100.00
64610;BME280;51019;46.090;6.350;2022-12-10T06:13:55;95287.81;;;-0.25;100.00
64610;BME280;51019;46.090;6.350;2022-12-10T06:16:24;95272.63;;;-0.17;100.00
64610;BME280;51019;46.090;6.350;2022-12-10T06:18:55;95295.09;;;-0.19;100.00
64610;BME280;51019;46.090;6.350;2022-12-10T06:21:23;95227.84;;;-0.51;100.00
64610;BME280;51019;46.090;6.350;2022-12-10T06:23:52;95279.44;;;-0.16;100.00
64610;BME280;51019;46.090;6.350;2022-12-10T06:26:21;95266.69;;;-0.30;100.00
64610;BME280;51019;46.090;6.350;2022-12-10T06:28:49;95276.06;;;-0.29;100.00
64610;BME280;51019;46.090;6.350;2022-12-10T06:31:18;95279.38;;;-0.27;100.00
64610;BME280;51019;46.090;6.350;2022-12-10T06:33:46;95304.66;;;-0.08;100.00
64610;BME280;51019;46.090;6.350;2022-12-10T06:36:16;95302.34;;;-0.24;100.00
64610;BME280;51019;46.090;6.350;2022-12-10T06:38:44;95312.00;;;-0.15;100.00
64610;BME280;51019;46.090;6.350;2022-12-10T06:41:13;95247.97;;;-0.68;100.00
64610;BME280;51019;46.090;6.350;2022-12-10T06:43:41;95304.16;;;-0.13;100.00
64610;BME280;51019;46.090;6.350;2022-12-10T06:46:11;95181.94;;;-0.81;100.00
64610;BME280;51019;46.090;6.350;2022-12-10T06:48:39;95271.97;;;-0.44;100.00
64610;BME280;51019;46.090;6.350;2022-12-10T06:51:06;95197.06;;;-1.01;100.00
64610;BME280;51019;46.090;6.350;2022-12-10T06:53:36;95313.22;;;-0.20;100.00
64610;BME280;51019;46.090;6.350;2022-12-10T06:56:06;95313.03;;;-0.17;100.00
64610;BME280;51019;46.090;6.350;2022-12-10T06:58:35;95325.06;;;-0.18;100.00
64610;BME280;51019;46.090;6.350;2022-12-10T07:01:03;95326.00;;;-0.19;100.00
64610;BME280;51019;46.090;6.350;2022-12-10T07:03:32;95333.81;;;-0.20;100.00
64610;BME280;51019;46.090;6.350;2022-12-10T07:05:59;95335.34;;;-0.05;100.00
64610;BME280;51019;46.090;6.350;2022-12-10T07:08:27;95255.28;;;-0.75;100.00
64610;BME280;51019;46.090;6.350;2022-12-10T07:10:56;95254.53;;;-0.77;100.00
64610;BME280;51019;46.090;6.350;2022-12-10T07:13:24;95326.72;;;-0.17;100.00
64610;BME280;51019;46.090;6.350;2022-12-10T07:15:51;95290.47;;;-0.14;100.00
64610;BME280;51019;46.090;6.350;2022-12-10T07:18:18;95208.34;;;-0.79;100.00
64610;BME280;51019;46.090;6.350;2022-12-10T07:20:46;95292.38;;;-0.05;100.00
64610;BME280;51019;46.090;6.350;2022-12-10T07:23:15;95327.47;;;0.09;100.00
64610;BME280;51019;46.090;6.350;2022-12-10T07:25:43;95297.78;;;-0.20;100.00
64610;BME280;51019;46.090;6.350;2022-12-10T07:28:13;95309.28;;;-0.01;100.00
64610;BME280;51019;46.090;6.350;2022-12-10T07:30:40;95327.47;;;0.09;100.00
64610;BME280;51019;46.090;6.350;2022-12-10T07:33:07;95335.66;;;-0.10;100.00
64610;BME280;51019;46.090;6.350;2022-12-10T07:35:37;95349.78;;;-0.15;100.00
64610;BME280;51019;46.090;6.350;2022-12-10T07:38:05;95353.81;;;0.13;100.00
64610;BME280;51019;46.090;6.350;2022-12-10T07:40:32;95277.25;;;-0.46;100.00
64610;BME280;51019;46.090;6.350;2022-12-10T07:43:00;95357.84;;;0.17;100.00
64610;BME280;51019;46.090;6.350;2022-12-10T07:45:29;95334.22;;;-0.01;100.00
64610;BME280;51019;46.090;6.350;2022-12-10T07:47:57;95362.28;;;0.15;100.00
64610;BME280;51019;46.090;6.350;2022-12-10T07:50:24;95361.97;;;0.19;100.00
64610;BME280;51019;46.090;6.350;2022-12-10T07:52:52;95377.22;;;0.22;100.00
64610;BME280;51019;46.090;6.350;2022-12-10T07:55:19;95370.84;;;0.15;100.00
64610;BME280;51019;46.090;6.350;2022-12-10T07:57:46;95379.25;;;0.30;100.00
64610;BME280;51019;46.090;6.350;2022-12-10T08:00:14;95256.19;;;-0.63;100.00
64610;BME280;51019;46.090;6.350;2022-12-10T08:02:44;95361.56;;;0.13;100.00
64610;BME280;51019;46.090;6.350;2022-12-10T08:05:11;95389.09;;;0.36;100.00
64610;BME280;51019;46.090;6.350;2022-12-10T08:07:39;95362.63;;;0.10;100.00
64610;BME280;51019;46.090;6.350;2022-12-10T08:10:06;95321.84;;;-0.09;100.00
64610;BME280;51019;46.090;6.350;2022-12-10T08:12:34;95391.13;;;0.20;100.00
64610;BME280;51019;46.090;6.350;2022-12-10T08:15:01;95391.84;;;0.46;100.00
64610;BME280;51019;46.090;6.350;2022-12-10T08:17:29;95396.09;;;0.70;100.00
64610;BME280;51019;46.090;6.350;2022-12-10T08:19:58;95382.81;;;0.64;100.00
64610;BME280;51019;46.090;6.350;2022-12-10T08:22:25;95394.72;;;0.78;100.00
64610;BME280;51019;46.090;6.350;2022-12-10T08:24:53;95397.88;;;0.81;100.00
64610;BME280;51019;46.090;6.350;2022-12-10T08:27:20;95401.06;;;0.85;100.00
64610;BME280;51019;46.090;6.350;2022-12-10T08:29:49;95399.38;;;0.96;100.00
64610;BME280;51019;46.090;6.350;2022-12-10T08:32:17;95409.59;;;0.98;100.00
64610;BME280;51019;46.090;6.350;2022-12-10T08:34:44;95391.13;;;0.91;100.00
64610;BME280;51019;46.090;6.350;2022-12-10T08:37:13;95317.34;;;0.43;100.00
64610;BME280;51019;46.090;6.350;2022-12-10T08:39:41;95411.38;;;1.08;100.00
64610;BME280;51019;46.090;6.350;2022-12-10T08:42:08;95404.63;;;0.95;100.00
64610;BME280;51019;46.090;6.350;2022-12-10T08:44:36;95378.47;;;0.88;100.00
64610;BME280;51019;46.090;6.350;2022-12-10T08:47:03;95412.63;;;1.03;100.00
64610;BME280;51019;46.090;6.350;2022-12-10T08:49:31;95416.25;;;0.89;100.00
64610;BME280;51019;46.090;6.350;2022-12-10T08:51:58;95400.47;;;0.81;100.00
64610;BME280;51019;46.090;6.350;2022-12-10T08:54:27;95395.97;;;0.72;100.00
64610;BME280;51019;46.090;6.350;2022-12-10T08:56:55;95419.03;;;0.86;100.00
64610;BME280;51019;46.090;6.350;2022-12-10T08:59:22;95429.72;;;0.93;100.00
64610;BME280;51019;46.090;6.350;2022-12-10T09:01:51;95413.88;;;0.86;100.00
64610;BME280;51019;46.090;6.350;2022-12-10T09:04:19;95436.75;;;0.91;100.00
64610;BME280;51019;46.090;6.350;2022-12-10T09:06:46;95355.28;;;0.64;100.00
64610;BME280;51019;46.090;6.350;2022-12-10T09:09:14;95346.16;;;0.48;100.00
64610;BME280;51019;46.090;6.350;2022-12-10T09:11:43;95442.66;;;1.04;100.00
64610;BME280;51019;46.090;6.350;2022-12-10T09:14:11;95448.44;;;1.07;100.00
64610;BME280;51019;46.090;6.350;2022-12-10T09:16:38;95444.97;;;1.20;100.00
64610;BME280;51019;46.090;6.350;2022-12-10T09:19:06;95274.25;;;-0.03;100.00
64610;BME280;51019;46.090;6.350;2022-12-10T09:21:33;95458.91;;;1.17;100.00
64610;BME280;51019;46.090;6.350;2022-12-10T09:24:01;95457.38;;;1.15;100.00
64610;BME280;51019;46.090;6.350;2022-12-10T09:26:29;95468.97;;;1.09;100.00
64610;BME280;51019;46.090;6.350;2022-12-10T09:28:57;95416.28;;;0.53;100.00
64610;BME280;51019;46.090;6.350;2022-12-10T09:31:26;95371.75;;;0.51;100.00
64610;BME280;51019;46.090;6.350;2022-12-10T09:33:53;95455.31;;;0.96;100.00
64610;BME280;51019;46.090;6.350;2022-12-10T09:36:22;95444.88;;;0.73;100.00
64610;BME280;51019;46.090;6.350;2022-12-10T09:38:49;95479.22;;;0.74;100.00
64610;BME280;51019;46.090;6.350;2022-12-10T09:41:54;95480.38;;;0.94;100.00
64610;BME280;51019;46.090;6.350;2022-12-10T09:44:36;95482.44;;;0.78;100.00
64610;BME280;51019;46.090;6.350;2022-12-10T09:47:08;95490.19;;;1.01;100.00
64610;BME280;51019;46.090;6.350;2022-12-10T09:49:47;95383.88;;;0.25;100.00
64610;BME280;51019;46.090;6.350;2022-12-10T09:52:19;95489.56;;;0.98;100.00
64610;BME280;51019;46.090;6.350;2022-12-10T09:54:50;95500.81;;;0.97;100.00
64610;BME280;51019;46.090;6.350;2022-12-10T09:57:23;95481.25;;;0.82;100.00
64610;BME280;51019;46.090;6.350;2022-12-10T09:59:54;95487.28;;;0.93;100.00
64610;BME280;51019;46.090;6.350;2022-12-10T10:02:25;95508.16;;;1.14;100.00
64610;BME280;51019;46.090;6.350;2022-12-10T10:04:57;95512.69;;;0.99;100.00
64610;BME280;51019;46.090;6.350;2022-12-10T10:07:26;95497.63;;;1.17;100.00
64610;BME280;51019;46.090;6.350;2022-12-10T10:09:57;95509.91;;;1.14;100.00
64610;BME280;51019;46.090;6.350;2022-12-10T10:12:26;95498.03;;;1.24;100.00
64610;BME280;51019;46.090;6.350;2022-12-10T10:14:56;95501.91;;;1.29;100.00
64610;BME280;51019;46.090;6.350;2022-12-10T10:17:29;95497.47;;;1.31;100.00
64610;BME280;51019;46.090;6.350;2022-12-10T10:19:59;95505.31;;;1.06;100.00
64610;BME280;51019;46.090;6.350;2022-12-10T10:22:27;95406.50;;;0.69;100.00
64610;BME280;51019;46.090;6.350;2022-12-10T10:24:55;95500.41;;;1.14;100.00
64610;BME280;51019;46.090;6.350;2022-12-10T10:27:29;95501.78;;;1.07;100.00
64610;BME280;51019;46.090;6.350;2022-12-10T10:30:01;95509.31;;;1.10;100.00
64610;BME280;51019;46.090;6.350;2022-12-10T10:32:48;95495.13;;;0.92;100.00
64610;BME280;51019;46.090;6.350;2022-12-10T10:35:26;95512.69;;;0.99;100.00
64610;BME280;51019;46.090;6.350;2022-12-10T10:37:57;95505.81;;;1.11;100.00
64610;BME280;51019;46.090;6.350;2022-12-10T10:40:28;95511.56;;;1.15;100.00
64610;BME280;51019;46.090;6.350;2022-12-10T10:42:58;95507.28;;;1.02;100.00
64610;BME280;51019;46.090;6.350;2022-12-10T10:45:38;95511.34;;;0.94;100.00
64610;BME280;51019;46.090;6.350;2022-12-10T10:48:11;95488.03;;;0.95;100.00
64610;BME280;51019;46.090;6.350;2022-12-10T10:50:41;95513.66;;;1.09;100.00
64610;BME280;51019;46.090;6.350;2022-12-10T10:53:25;95509.66;;;1.05;100.00
64610;BME280;51019;46.090;6.350;2022-12-10T10:55:55;95504.25;;;0.85;100.00
64610;BME280;51019;46.090;6.350;2022-12-10T10:58:24;95500.69;;;0.75;100.00
64610;BME280;51019;46.090;6.350;2022-12-10T11:01:11;95512.88;;;0.96;100.00
64610;BME280;51019;46.090;6.350;2022-12-10T11:03:46;95476.03;;;0.70;100.00
64610;BME280;51019;46.090;6.350;2022-12-10T11:06:14;95518.41;;;1.03;100.00
64610;BME280;51019;46.090;6.350;2022-12-10T11:08:43;95518.66;;;1.00;100.00
64610;BME280;51019;46.090;6.350;2022-12-10T11:11:16;95520.69;;;1.07;100.00
64610;BME280;51019;46.090;6.350;2022-12-10T11:13:44;95511.41;;;1.05;100.00
64610;BME280;51019;46.090;6.350;2022-12-10T11:16:18;95507.69;;;0.72;100.00
64610;BME280;51019;46.090;6.350;2022-12-10T11:18:54;95516.28;;;0.97;100.00
64610;BME280;51019;46.090;6.350;2022-12-10T11:21:23;95521.78;;;1.16;100.00
64610;BME280;51019;46.090;6.350;2022-12-10T11:23:53;95524.97;;;1.20;100.00
64610;BME280;51019;46.090;6.350;2022-12-10T11:26:33;95487.97;;;0.84;100.00
64610;BME280;51019;46.090;6.350;2022-12-10T11:29:11;95496.66;;;0.70;100.00
64610;BME280;51019;46.090;6.350;2022-12-10T11:31:54;95534.97;;;1.00;100.00
64610;BME280;51019;46.090;6.350;2022-12-10T11:34:33;95539.03;;;1.16;100.00
64610;BME280;51019;46.090;6.350;2022-12-10T11:37:10;95539.25;;;1.13;100.00
64610;BME280;51019;46.090;6.350;2022-12-10T11:39:59;95545.13;;;1.15;100.00
64610;BME280;51019;46.090;6.350;2022-12-10T11:42:36;95548.00;;;0.86;100.00
64610;BME280;51019;46.090;6.350;2022-12-10T11:45:11;95551.47;;;0.98;100.00
64610;BME280;51019;46.090;6.350;2022-12-10T11:47:53;95549.47;;;0.90;100.00
64610;BME280;51019;46.090;6.350;2022-12-10T11:50:27;95560.59;;;1.15;100.00
64610;BME280;51019;46.090;6.350;2022-12-10T11:53:11;95404.66;;;0.11;100.00
64610;BME280;51019;46.090;6.350;2022-12-10T11:55:49;95564.59;;;0.95;100.00
64610;BME280;51019;46.090;6.350;2022-12-10T11:58:35;95574.19;;;0.93;100.00
64610;BME280;51019;46.090;6.350;2022-12-10T12:01:13;95569.50;;;0.74;100.00
64610;BME280;51019;46.090;6.350;2022-12-10T12:04:04;95558.34;;;0.73;100.00
64610;BME280;51019;46.090;6.350;2022-12-10T12:06:57;95569.88;;;0.81;100.00
64610;BME280;51019;46.090;6.350;2022-12-10T12:09:35;95571.97;;;0.76;100.00
64610;BME280;51019;46.090;6.350;2022-12-10T12:12:17;95554.31;;;0.82;100.00
64610;BME280;51019;46.090;6.350;2022-12-10T12:14:49;95513.44;;;0.52;100.00
64610;BME280;51019;46.090;6.350;2022-12-10T12:17:23;95574.72;;;0.85;100.00
64610;BME280;51019;46.090;6.350;2022-12-10T12:19:54;95563.50;;;0.73;100.00
64610;BME280;51019;46.090;6.350;2022-12-10T12:22:26;95568.22;;;0.80;100.00
64610;BME280;51019;46.090;6.350;2022-12-10T12:24:57;95560.00;;;0.75;100.00
64610;BME280;51019;46.090;6.350;2022-12-10T12:27:30;95559.00;;;0.64;100.00
64610;BME280;51019;46.090;6.350;2022-12-10T12:30:05;95580.63;;;0.75;100.00
64610;BME280;51019;46.090;6.350;2022-12-10T12:32:42;95577.53;;;0.69;100.00
64610;BME280;51019;46.090;6.350;2022-12-10T12:35:19;95586.63;;;0.75;100.00
64610;BME280;51019;46.090;6.350;2022-12-10T12:37:54;95567.88;;;0.60;100.00
64610;BME280;51019;46.090;6.350;2022-12-10T12:40:28;95442.41;;;-0.01;100.00
64610;BME280;51019;46.090;6.350;2022-12-10T12:42:58;95594.66;;;0.83;100.00
64610;BME280;51019;46.090;6.350;2022-12-10T12:45:33;95589.09;;;0.77;100.00
64610;BME280;51019;46.090;6.350;2022-12-10T12:48:09;95592.72;;;0.74;100.00
64610;BME280;51019;46.090;6.350;2022-12-10T12:50:46;95594.47;;;0.73;100.00
64610;BME280;51019;46.090;6.350;2022-12-10T12:53:16;95598.59;;;0.63;100.00
64610;BME280;51019;46.090;6.350;2022-12-10T12:55:49;95544.19;;;0.17;100.00
64610;BME280;51019;46.090;6.350;2022-12-10T12:58:24;95577.69;;;0.43;100.00
64610;BME280;51019;46.090;6.350;2022-12-10T13:00:56;95601.38;;;0.60;100.00
64610;BME280;51019;46.090;6.350;2022-12-10T13:03:33;95580.66;;;0.49;100.00
64610;BME280;51019;46.090;6.350;2022-12-10T13:06:17;95601.28;;;0.75;100.00
64610;BME280;51019;46.090;6.350;2022-12-10T13:08:48;95620.06;;;0.77;100.00
64610;BME280;51019;46.090;6.350;2022-12-10T13:11:24;95617.25;;;0.80;100.00
64610;BME280;51019;46.090;6.350;2022-12-10T13:14:14;95591.78;;;0.62;100.00
64610;BME280;51019;46.090;6.350;2022-12-10T13:16:50;95620.06;;;0.77;100.00